Creek Data

    Home     View Charts     View Raw Data     Messages

ID Distance Battery Voltage Battery Current Internal Temp Internal Humidity External Temp Solar Input rssi snr Time Stamp Record
32551 12.7 3.74 0 70 35 64 5.1 -79 7 02/16/2025 01:30 PM 14223
32550 12.7 3.73 0 66 37 62 5.1 -78 7 02/16/2025 01:15 PM 14222
32549 12.6 3.73 0 64 38 61 5.1 -78 7 02/16/2025 01:00 PM 14221
32548 12.7 3.77 0 65 38 61 5.1 -78 7 02/16/2025 12:45 PM 14220
32547 12.7 3.74 0 66 36 61 5.1 -78 8 02/16/2025 12:30 PM 14219
32546 12.7 3.74 0 65 37 60 5.1 -78 6 02/16/2025 12:15 PM 14218
32545 12.7 3.74 0 66 35 61 5.1 -77 8 02/16/2025 12:00 PM 14217
32544 12.7 3.73 0 64 36 60 5.1 -77 7 02/16/2025 11:45 AM 14216
32543 12.7 3.74 0 65 35 59 5.1 -77 8 02/16/2025 11:30 AM 14215
32542 12.8 3.74 0 64 35 60 5.1 -79 8 02/16/2025 11:15 AM 14214
32541 12.8 3.74 0 63 34 60 5.1 -79 7 02/16/2025 11:00 AM 14213
32540 12.8 3.75 0 62 34 57 5.1 -80 7 02/16/2025 10:45 AM 14212
32539 12.7 3.78 0 58 35 57 5.1 -80 8 02/16/2025 10:30 AM 14211
32538 12.7 3.97 0 56 35 52 5.1 -80 8 02/16/2025 10:15 AM 14210
32537 12.6 3.75 0 54 35 53 5.1 -80 7 02/16/2025 10:00 AM 14209
32536 12.6 3.83 0 52 35 52 5.1 -80 6 02/16/2025 09:45 AM 14208
32535 12.6 3.75 0 52 35 51 5.1 -80 7 02/16/2025 09:30 AM 14207
32534 12.7 3.75 0 51 35 53 5.1 -81 7 02/16/2025 09:15 AM 14206
32533 12.6 3.74 0 47 37 50 5.1 -82 7 02/16/2025 09:00 AM 14205
32532 12.6 3.77 -5 46 37 46 4.5 -84 8 02/16/2025 08:45 AM 14204
32531 12.6 3.89 25 46 36 46 4.5 -88 8 02/16/2025 08:30 AM 14203
32530 12.6 3.89 9 45 36 46 4.5 -83 8 02/16/2025 08:15 AM 14202
32529 12.6 3.88 9 45 36 46 4.5 -86 8 02/16/2025 08:00 AM 14201
32528 12.6 3.94 0 44 36 46 4.5 -86 8 02/16/2025 07:45 AM 14200
32527 12.6 3.75 12 43 37 45 4.6 -86 8 02/16/2025 07:30 AM 14199